sensor_id;sensor_type;location;lat;lon;timestamp;P1;durP1;ratioP1;P2;durP2;ratioP2
7485;SDS011;3784;54.098;9.998;2023-05-10T00:00:54;18.93;;;17.83;;
7485;SDS011;3784;54.098;9.998;2023-05-10T00:03:20;18.93;;;17.67;;
7485;SDS011;3784;54.098;9.998;2023-05-10T00:05:47;17.30;;;15.90;;
7485;SDS011;3784;54.098;9.998;2023-05-10T00:08:13;22.40;;;20.53;;
7485;SDS011;3784;54.098;9.998;2023-05-10T00:10:40;18.03;;;16.67;;
7485;SDS011;3784;54.098;9.998;2023-05-10T00:13:07;16.27;;;15.47;;
7485;SDS011;3784;54.098;9.998;2023-05-10T00:15:33;16.97;;;16.07;;
7485;SDS011;3784;54.098;9.998;2023-05-10T00:18:00;18.27;;;17.27;;
7485;SDS011;3784;54.098;9.998;2023-05-10T00:20:27;16.77;;;15.67;;
7485;SDS011;3784;54.098;9.998;2023-05-10T00:22:53;17.30;;;16.43;;
7485;SDS011;3784;54.098;9.998;2023-05-10T00:25:20;17.60;;;16.53;;
7485;SDS011;3784;54.098;9.998;2023-05-10T00:27:47;18.83;;;17.83;;
7485;SDS011;3784;54.098;9.998;2023-05-10T00:30:14;17.67;;;16.83;;
7485;SDS011;3784;54.098;9.998;2023-05-10T00:32:42;18.27;;;17.13;;
7485;SDS011;3784;54.098;9.998;2023-05-10T00:35:09;19.43;;;18.17;;
7485;SDS011;3784;54.098;9.998;2023-05-10T00:37:36;18.43;;;17.23;;
7485;SDS011;3784;54.098;9.998;2023-05-10T00:40:02;17.60;;;16.70;;
7485;SDS011;3784;54.098;9.998;2023-05-10T00:42:29;18.23;;;17.03;;
7485;SDS011;3784;54.098;9.998;2023-05-10T00:44:56;18.47;;;17.37;;
7485;SDS011;3784;54.098;9.998;2023-05-10T00:47:22;18.00;;;16.93;;
7485;SDS011;3784;54.098;9.998;2023-05-10T00:49:49;18.83;;;17.73;;
7485;SDS011;3784;54.098;9.998;2023-05-10T00:52:15;18.13;;;17.23;;
7485;SDS011;3784;54.098;9.998;2023-05-10T00:54:42;18.13;;;16.93;;
7485;SDS011;3784;54.098;9.998;2023-05-10T00:57:09;17.40;;;16.30;;
7485;SDS011;3784;54.098;9.998;2023-05-10T00:59:35;17.57;;;16.67;;
7485;SDS011;3784;54.098;9.998;2023-05-10T01:02:02;19.17;;;17.97;;
7485;SDS011;3784;54.098;9.998;2023-05-10T01:04:29;16.83;;;15.93;;
7485;SDS011;3784;54.098;9.998;2023-05-10T01:06:56;18.33;;;17.03;;
7485;SDS011;3784;54.098;9.998;2023-05-10T01:09:23;19.10;;;18.00;;
7485;SDS011;3784;54.098;9.998;2023-05-10T01:11:51;17.83;;;16.83;;
7485;SDS011;3784;54.098;9.998;2023-05-10T01:14:18;19.13;;;17.83;;
7485;SDS011;3784;54.098;9.998;2023-05-10T01:16:46;18.93;;;17.83;;
7485;SDS011;3784;54.098;9.998;2023-05-10T01:19:21;18.97;;;17.73;;
7485;SDS011;3784;54.098;9.998;2023-05-10T01:22:05;17.27;;;16.17;;
7485;SDS011;3784;54.098;9.998;2023-05-10T01:36:19;17.23;;;15.83;;
7485;SDS011;3784;54.098;9.998;2023-05-10T01:38:58;19.97;;;18.60;;
7485;SDS011;3784;54.098;9.998;2023-05-10T01:42:14;18.40;;;17.27;;
7485;SDS011;3784;54.098;9.998;2023-05-10T01:44:31;19.53;;;18.23;;
7485;SDS011;3784;54.098;9.998;2023-05-10T01:47:12;18.10;;;16.97;;
7485;SDS011;3784;54.098;9.998;2023-05-10T01:49:43;17.17;;;15.87;;
7485;SDS011;3784;54.098;9.998;2023-05-10T01:52:13;20.10;;;18.70;;
7485;SDS011;3784;54.098;9.998;2023-05-10T01:54:45;19.53;;;18.27;;
7485;SDS011;3784;54.098;9.998;2023-05-10T01:57:16;20.17;;;19.00;;
7485;SDS011;3784;54.098;9.998;2023-05-10T01:59:44;18.90;;;17.80;;
7485;SDS011;3784;54.098;9.998;2023-05-10T02:02:11;18.17;;;17.20;;
7485;SDS011;3784;54.098;9.998;2023-05-10T02:04:39;18.40;;;17.30;;
7485;SDS011;3784;54.098;9.998;2023-05-10T02:07:06;18.47;;;17.43;;
7485;SDS011;3784;54.098;9.998;2023-05-10T02:09:34;17.37;;;16.23;;
7485;SDS011;3784;54.098;9.998;2023-05-10T02:12:02;19.73;;;18.53;;
7485;SDS011;3784;54.098;9.998;2023-05-10T02:14:30;19.83;;;18.43;;
7485;SDS011;3784;54.098;9.998;2023-05-10T02:16:58;19.07;;;18.07;;
7485;SDS011;3784;54.098;9.998;2023-05-10T02:19:26;19.47;;;17.97;;
7485;SDS011;3784;54.098;9.998;2023-05-10T02:21:54;18.20;;;17.20;;
7485;SDS011;3784;54.098;9.998;2023-05-10T02:24:21;21.37;;;20.07;;
7485;SDS011;3784;54.098;9.998;2023-05-10T02:26:51;21.13;;;19.50;;
7485;SDS011;3784;54.098;9.998;2023-05-10T02:29:17;21.03;;;19.93;;
7485;SDS011;3784;54.098;9.998;2023-05-10T02:31:44;19.30;;;18.30;;
7485;SDS011;3784;54.098;9.998;2023-05-10T02:34:11;19.33;;;17.97;;
7485;SDS011;3784;54.098;9.998;2023-05-10T02:36:39;19.07;;;18.17;;
7485;SDS011;3784;54.098;9.998;2023-05-10T02:39:06;20.00;;;18.90;;
7485;SDS011;3784;54.098;9.998;2023-05-10T02:41:36;19.60;;;18.50;;
7485;SDS011;3784;54.098;9.998;2023-05-10T02:44:03;19.37;;;18.27;;
7485;SDS011;3784;54.098;9.998;2023-05-10T02:46:33;20.30;;;19.17;;
7485;SDS011;3784;54.098;9.998;2023-05-10T02:49:01;20.77;;;19.27;;
7485;SDS011;3784;54.098;9.998;2023-05-10T02:51:28;20.70;;;19.50;;
7485;SDS011;3784;54.098;9.998;2023-05-10T02:53:57;21.00;;;19.60;;
7485;SDS011;3784;54.098;9.998;2023-05-10T02:56:34;20.10;;;18.80;;
7485;SDS011;3784;54.098;9.998;2023-05-10T02:59:02;22.50;;;20.77;;
7485;SDS011;3784;54.098;9.998;2023-05-10T03:01:29;21.70;;;20.10;;
7485;SDS011;3784;54.098;9.998;2023-05-10T03:03:55;20.40;;;19.37;;
7485;SDS011;3784;54.098;9.998;2023-05-10T03:06:22;21.07;;;19.80;;
7485;SDS011;3784;54.098;9.998;2023-05-10T03:08:48;20.53;;;19.43;;
7485;SDS011;3784;54.098;9.998;2023-05-10T03:16:25;20.13;;;18.53;;
7485;SDS011;3784;54.098;9.998;2023-05-10T03:18:56;20.27;;;18.87;;
7485;SDS011;3784;54.098;9.998;2023-05-10T03:21:33;20.47;;;19.30;;
7485;SDS011;3784;54.098;9.998;2023-05-10T03:24:07;19.73;;;18.43;;
7485;SDS011;3784;54.098;9.998;2023-05-10T03:26:34;19.43;;;18.33;;
7485;SDS011;3784;54.098;9.998;2023-05-10T03:29:01;21.33;;;20.23;;
7485;SDS011;3784;54.098;9.998;2023-05-10T03:31:28;20.87;;;19.60;;
7485;SDS011;3784;54.098;9.998;2023-05-10T03:33:54;23.97;;;22.43;;
7485;SDS011;3784;54.098;9.998;2023-05-10T03:36:21;21.33;;;20.23;;
7485;SDS011;3784;54.098;9.998;2023-05-10T03:38:48;20.83;;;19.73;;
7485;SDS011;3784;54.098;9.998;2023-05-10T03:41:14;20.40;;;19.03;;
7485;SDS011;3784;54.098;9.998;2023-05-10T03:43:41;21.60;;;20.10;;
7485;SDS011;3784;54.098;9.998;2023-05-10T03:46:07;20.60;;;19.50;;
7485;SDS011;3784;54.098;9.998;2023-05-10T03:48:34;21.60;;;20.07;;
7485;SDS011;3784;54.098;9.998;2023-05-10T03:51:01;21.07;;;19.87;;
7485;SDS011;3784;54.098;9.998;2023-05-10T03:53:27;20.90;;;19.53;;
7485;SDS011;3784;54.098;9.998;2023-05-10T03:55:54;20.97;;;19.87;;
7485;SDS011;3784;54.098;9.998;2023-05-10T03:58:20;22.13;;;20.70;;
7485;SDS011;3784;54.098;9.998;2023-05-10T04:00:48;21.77;;;20.63;;
7485;SDS011;3784;54.098;9.998;2023-05-10T04:03:14;22.27;;;21.07;;
7485;SDS011;3784;54.098;9.998;2023-05-10T04:05:41;21.60;;;20.07;;
7485;SDS011;3784;54.098;9.998;2023-05-10T04:08:07;23.83;;;22.27;;
7485;SDS011;3784;54.098;9.998;2023-05-10T04:10:34;21.17;;;20.07;;
7485;SDS011;3784;54.098;9.998;2023-05-10T04:13:00;22.77;;;21.47;;
7485;SDS011;3784;54.098;9.998;2023-05-10T04:15:27;22.83;;;21.53;;
7485;SDS011;3784;54.098;9.998;2023-05-10T04:17:54;21.30;;;20.10;;
7485;SDS011;3784;54.098;9.998;2023-05-10T04:20:20;20.50;;;19.40;;
7485;SDS011;3784;54.098;9.998;2023-05-10T04:22:47;24.10;;;22.80;;
7485;SDS011;3784;54.098;9.998;2023-05-10T04:25:13;22.77;;;21.37;;
7485;SDS011;3784;54.098;9.998;2023-05-10T04:27:40;22.90;;;21.30;;
7485;SDS011;3784;54.098;9.998;2023-05-10T04:30:06;22.13;;;20.67;;
7485;SDS011;3784;54.098;9.998;2023-05-10T04:32:33;22.90;;;21.47;;
7485;SDS011;3784;54.098;9.998;2023-05-10T04:35:00;21.13;;;19.73;;
7485;SDS011;3784;54.098;9.998;2023-05-10T04:37:29;22.33;;;21.07;;
7485;SDS011;3784;54.098;9.998;2023-05-10T04:39:55;21.57;;;20.27;;
7485;SDS011;3784;54.098;9.998;2023-05-10T04:42:21;23.87;;;22.30;;
7485;SDS011;3784;54.098;9.998;2023-05-10T04:44:48;22.37;;;21.07;;
7485;SDS011;3784;54.098;9.998;2023-05-10T04:47:14;24.43;;;23.03;;
7485;SDS011;3784;54.098;9.998;2023-05-10T04:49:42;22.33;;;21.23;;
7485;SDS011;3784;54.098;9.998;2023-05-10T04:52:09;23.10;;;21.80;;
7485;SDS011;3784;54.098;9.998;2023-05-10T04:54:35;24.87;;;23.57;;
7485;SDS011;3784;54.098;9.998;2023-05-10T04:57:02;24.23;;;22.93;;
7485;SDS011;3784;54.098;9.998;2023-05-10T04:59:28;24.20;;;22.53;;
7485;SDS011;3784;54.098;9.998;2023-05-10T05:01:55;23.90;;;22.60;;
7485;SDS011;3784;54.098;9.998;2023-05-10T05:04:21;24.30;;;22.90;;
7485;SDS011;3784;54.098;9.998;2023-05-10T05:06:49;24.73;;;23.53;;
7485;SDS011;3784;54.098;9.998;2023-05-10T05:09:19;23.50;;;22.13;;
7485;SDS011;3784;54.098;9.998;2023-05-10T05:11:46;23.47;;;22.20;;
7485;SDS011;3784;54.098;9.998;2023-05-10T05:14:12;25.20;;;24.00;;
7485;SDS011;3784;54.098;9.998;2023-05-10T05:16:39;26.33;;;24.93;;
7485;SDS011;3784;54.098;9.998;2023-05-10T05:19:05;26.87;;;25.47;;
7485;SDS011;3784;54.098;9.998;2023-05-10T05:21:32;25.33;;;23.93;;
7485;SDS011;3784;54.098;9.998;2023-05-10T05:23:58;27.63;;;26.23;;
7485;SDS011;3784;54.098;9.998;2023-05-10T05:26:26;23.43;;;22.13;;
7485;SDS011;3784;54.098;9.998;2023-05-10T05:28:52;26.03;;;24.73;;
7485;SDS011;3784;54.098;9.998;2023-05-10T05:31:20;25.13;;;23.77;;
7485;SDS011;3784;54.098;9.998;2023-05-10T05:33:47;24.90;;;23.57;;
7485;SDS011;3784;54.098;9.998;2023-05-10T05:36:14;29.33;;;27.80;;
7485;SDS011;3784;54.098;9.998;2023-05-10T05:38:40;25.90;;;24.47;;
7485;SDS011;3784;54.098;9.998;2023-05-10T05:41:07;25.83;;;24.53;;
7485;SDS011;3784;54.098;9.998;2023-05-10T05:43:33;33.23;;;31.43;;
7485;SDS011;3784;54.098;9.998;2023-05-10T05:46:03;28.70;;;27.20;;
7485;SDS011;3784;54.098;9.998;2023-05-10T05:48:30;24.93;;;23.40;;
7485;SDS011;3784;54.098;9.998;2023-05-10T05:50:57;23.67;;;22.37;;
7485;SDS011;3784;54.098;9.998;2023-05-10T05:53:24;23.17;;;21.87;;
7485;SDS011;3784;54.098;9.998;2023-05-10T05:55:51;25.87;;;24.27;;
7485;SDS011;3784;54.098;9.998;2023-05-10T05:58:19;23.63;;;22.50;;
7485;SDS011;3784;54.098;9.998;2023-05-10T06:00:46;24.97;;;23.70;;
7485;SDS011;3784;54.098;9.998;2023-05-10T06:03:12;26.83;;;25.33;;
7485;SDS011;3784;54.098;9.998;2023-05-10T06:05:39;35.23;;;33.43;;
7485;SDS011;3784;54.098;9.998;2023-05-10T06:08:05;30.27;;;28.77;;
7485;SDS011;3784;54.098;9.998;2023-05-10T06:10:32;32.57;;;30.77;;
7485;SDS011;3784;54.098;9.998;2023-05-10T06:12:58;26.40;;;24.83;;
7485;SDS011;3784;54.098;9.998;2023-05-10T06:15:25;27.57;;;26.17;;
7485;SDS011;3784;54.098;9.998;2023-05-10T06:17:52;24.33;;;23.03;;
7485;SDS011;3784;54.098;9.998;2023-05-10T06:20:18;24.83;;;23.57;;
7485;SDS011;3784;54.098;9.998;2023-05-10T06:22:45;25.53;;;24.23;;
7485;SDS011;3784;54.098;9.998;2023-05-10T06:25:11;27.20;;;25.70;;
7485;SDS011;3784;54.098;9.998;2023-05-10T06:27:38;24.43;;;23.27;;
7485;SDS011;3784;54.098;9.998;2023-05-10T06:30:05;33.70;;;32.00;;
7485;SDS011;3784;54.098;9.998;2023-05-10T06:32:38;24.73;;;23.33;;
7485;SDS011;3784;54.098;9.998;2023-05-10T06:35:05;26.13;;;24.87;;
7485;SDS011;3784;54.098;9.998;2023-05-10T06:37:32;28.07;;;26.47;;
7485;SDS011;3784;54.098;9.998;2023-05-10T06:39:58;24.43;;;23.00;;
7485;SDS011;3784;54.098;9.998;2023-05-10T06:42:25;23.60;;;22.03;;
7485;SDS011;3784;54.098;9.998;2023-05-10T06:44:53;25.40;;;24.13;;
7485;SDS011;3784;54.098;9.998;2023-05-10T06:47:19;32.83;;;31.17;;
7485;SDS011;3784;54.098;9.998;2023-05-10T06:49:46;26.90;;;25.43;;
7485;SDS011;3784;54.098;9.998;2023-05-10T06:52:12;23.97;;;22.77;;
7485;SDS011;3784;54.098;9.998;2023-05-10T06:54:39;26.47;;;25.13;;
7485;SDS011;3784;54.098;9.998;2023-05-10T06:57:05;23.50;;;22.37;;
7485;SDS011;3784;54.098;9.998;2023-05-10T06:59:48;27.20;;;25.87;;
7485;SDS011;3784;54.098;9.998;2023-05-10T07:02:15;26.20;;;24.73;;
7485;SDS011;3784;54.098;9.998;2023-05-10T07:04:41;27.50;;;26.10;;
7485;SDS011;3784;54.098;9.998;2023-05-10T07:07:08;31.93;;;30.30;;
7485;SDS011;3784;54.098;9.998;2023-05-10T07:09:35;30.17;;;28.57;;
7485;SDS011;3784;54.098;9.998;2023-05-10T07:12:01;24.43;;;23.20;;
7485;SDS011;3784;54.098;9.998;2023-05-10T07:14:28;27.17;;;25.77;;
7485;SDS011;3784;54.098;9.998;2023-05-10T07:16:55;28.80;;;27.27;;
7485;SDS011;3784;54.098;9.998;2023-05-10T07:19:21;27.43;;;26.03;;
7485;SDS011;3784;54.098;9.998;2023-05-10T07:21:48;28.07;;;26.70;;
7485;SDS011;3784;54.098;9.998;2023-05-10T07:24:15;25.20;;;23.90;;
7485;SDS011;3784;54.098;9.998;2023-05-10T07:26:41;25.50;;;24.20;;
7485;SDS011;3784;54.098;9.998;2023-05-10T07:29:08;31.47;;;29.87;;
7485;SDS011;3784;54.098;9.998;2023-05-10T07:31:34;25.10;;;23.70;;
7485;SDS011;3784;54.098;9.998;2023-05-10T07:34:01;28.23;;;26.50;;
7485;SDS011;3784;54.098;9.998;2023-05-10T07:36:27;33.53;;;31.77;;
7485;SDS011;3784;54.098;9.998;2023-05-10T07:38:54;29.20;;;27.73;;
7485;SDS011;3784;54.098;9.998;2023-05-10T07:41:20;32.03;;;30.43;;
7485;SDS011;3784;54.098;9.998;2023-05-10T07:43:47;48.77;;;46.53;;
7485;SDS011;3784;54.098;9.998;2023-05-10T07:46:13;44.53;;;42.47;;
7485;SDS011;3784;54.098;9.998;2023-05-10T07:48:40;30.70;;;29.20;;
7485;SDS011;3784;54.098;9.998;2023-05-10T07:51:07;34.10;;;32.47;;
7485;SDS011;3784;54.098;9.998;2023-05-10T07:53:35;40.87;;;39.03;;
7485;SDS011;3784;54.098;9.998;2023-05-10T07:58:46;40.60;;;38.60;;
7485;SDS011;3784;54.098;9.998;2023-05-10T08:01:13;43.47;;;41.30;;
7485;SDS011;3784;54.098;9.998;2023-05-10T08:03:39;47.50;;;44.93;;
7485;SDS011;3784;54.098;9.998;2023-05-10T08:06:06;72.43;;;69.10;;
7485;SDS011;3784;54.098;9.998;2023-05-10T08:08:32;68.37;;;65.33;;
7485;SDS011;3784;54.098;9.998;2023-05-10T08:10:59;56.50;;;53.93;;
7485;SDS011;3784;54.098;9.998;2023-05-10T08:13:25;51.17;;;48.67;;
7485;SDS011;3784;54.098;9.998;2023-05-10T08:15:52;59.97;;;57.27;;
7485;SDS011;3784;54.098;9.998;2023-05-10T08:18:19;60.27;;;57.20;;
7485;SDS011;3784;54.098;9.998;2023-05-10T08:20:47;81.57;;;77.87;;
7485;SDS011;3784;54.098;9.998;2023-05-10T08:23:13;57.47;;;54.63;;
7485;SDS011;3784;54.098;9.998;2023-05-10T08:25:40;44.83;;;42.63;;
7485;SDS011;3784;54.098;9.998;2023-05-10T08:28:06;41.67;;;39.77;;
7485;SDS011;3784;54.098;9.998;2023-05-10T08:30:35;59.53;;;56.83;;
7485;SDS011;3784;54.098;9.998;2023-05-10T08:33:02;47.47;;;45.07;;
7485;SDS011;3784;54.098;9.998;2023-05-10T08:35:28;44.53;;;42.53;;
7485;SDS011;3784;54.098;9.998;2023-05-10T08:37:55;53.10;;;50.57;;
7485;SDS011;3784;54.098;9.998;2023-05-10T08:40:21;47.87;;;45.57;;
7485;SDS011;3784;54.098;9.998;2023-05-10T08:42:51;90.03;;;85.70;;
7485;SDS011;3784;54.098;9.998;2023-05-10T08:45:22;81.43;;;77.63;;
7485;SDS011;3784;54.098;9.998;2023-05-10T08:47:49;60.60;;;57.80;;
7485;SDS011;3784;54.098;9.998;2023-05-10T08:50:16;53.40;;;50.90;;
7485;SDS011;3784;54.098;9.998;2023-05-10T08:52:43;62.30;;;59.50;;
7485;SDS011;3784;54.098;9.998;2023-05-10T08:55:11;77.83;;;74.30;;
7485;SDS011;3784;54.098;9.998;2023-05-10T08:57:38;72.57;;;69.13;;
7485;SDS011;3784;54.098;9.998;2023-05-10T09:00:04;53.83;;;51.23;;
7485;SDS011;3784;54.098;9.998;2023-05-10T09:02:31;102.53;;;97.90;;
7485;SDS011;3784;54.098;9.998;2023-05-10T09:04:58;67.20;;;64.07;;
7485;SDS011;3784;54.098;9.998;2023-05-10T09:07:25;90.57;;;86.43;;
7485;SDS011;3784;54.098;9.998;2023-05-10T09:09:52;54.83;;;52.33;;
7485;SDS011;3784;54.098;9.998;2023-05-10T09:12:19;58.97;;;55.77;;
7485;SDS011;3784;54.098;9.998;2023-05-10T09:14:45;108.27;;;103.40;;
7485;SDS011;3784;54.098;9.998;2023-05-10T09:17:12;55.73;;;53.27;;
7485;SDS011;3784;54.098;9.998;2023-05-10T09:19:39;75.80;;;72.17;;
7485;SDS011;3784;54.098;9.998;2023-05-10T09:22:06;73.50;;;70.13;;
7485;SDS011;3784;54.098;9.998;2023-05-10T09:24:32;62.50;;;59.70;;
7485;SDS011;3784;54.098;9.998;2023-05-10T09:26:59;82.07;;;78.43;;
7485;SDS011;3784;54.098;9.998;2023-05-10T09:29:26;58.27;;;55.57;;
7485;SDS011;3784;54.098;9.998;2023-05-10T09:31:52;65.43;;;62.53;;
7485;SDS011;3784;54.098;9.998;2023-05-10T09:34:29;66.60;;;63.50;;
7485;SDS011;3784;54.098;9.998;2023-05-10T09:36:57;100.47;;;96.03;;
7485;SDS011;3784;54.098;9.998;2023-05-10T09:39:33;110.17;;;105.30;;
7485;SDS011;3784;54.098;9.998;2023-05-10T09:42:05;57.67;;;54.67;;
7485;SDS011;3784;54.098;9.998;2023-05-10T09:44:33;76.40;;;73.07;;
7485;SDS011;3784;54.098;9.998;2023-05-10T09:47:02;87.33;;;83.37;;
7485;SDS011;3784;54.098;9.998;2023-05-10T09:49:29;94.13;;;90.13;;
7485;SDS011;3784;54.098;9.998;2023-05-10T09:52:00;75.13;;;71.50;;
7485;SDS011;3784;54.098;9.998;2023-05-10T09:54:28;102.63;;;97.97;;
7485;SDS011;3784;54.098;9.998;2023-05-10T09:56:55;116.40;;;111.27;;
7485;SDS011;3784;54.098;9.998;2023-05-10T09:59:21;95.23;;;91.10;;
7485;SDS011;3784;54.098;9.998;2023-05-10T10:01:51;83.07;;;79.43;;
7485;SDS011;3784;54.098;9.998;2023-05-10T10:04:19;80.53;;;76.73;;
7485;SDS011;3784;54.098;9.998;2023-05-10T10:06:46;107.43;;;102.60;;
7485;SDS011;3784;54.098;9.998;2023-05-10T10:09:24;103.53;;;99.03;;
7485;SDS011;3784;54.098;9.998;2023-05-10T10:11:51;107.50;;;102.77;;
7485;SDS011;3784;54.098;9.998;2023-05-10T10:14:18;77.87;;;73.67;;
7485;SDS011;3784;54.098;9.998;2023-05-10T10:16:44;90.47;;;86.47;;
7485;SDS011;3784;54.098;9.998;2023-05-10T10:19:32;88.07;;;84.00;;
7485;SDS011;3784;54.098;9.998;2023-05-10T10:22:00;72.83;;;69.23;;
7485;SDS011;3784;54.098;9.998;2023-05-10T10:24:26;79.03;;;75.53;;
7485;SDS011;3784;54.098;9.998;2023-05-10T10:26:54;72.60;;;69.23;;
7485;SDS011;3784;54.098;9.998;2023-05-10T10:29:24;69.30;;;66.13;;
7485;SDS011;3784;54.098;9.998;2023-05-10T10:31:57;65.70;;;62.63;;
7485;SDS011;3784;54.098;9.998;2023-05-10T10:34:31;60.07;;;57.10;;
7485;SDS011;3784;54.098;9.998;2023-05-10T10:36:59;76.27;;;72.70;;
7485;SDS011;3784;54.098;9.998;2023-05-10T10:39:30;61.97;;;59.07;;
7485;SDS011;3784;54.098;9.998;2023-05-10T10:41:57;60.23;;;57.27;;
7485;SDS011;3784;54.098;9.998;2023-05-10T10:44:25;65.80;;;62.73;;
7485;SDS011;3784;54.098;9.998;2023-05-10T10:49:41;52.83;;;50.40;;
7485;SDS011;3784;54.098;9.998;2023-05-10T10:55:00;53.83;;;51.27;;
7485;SDS011;3784;54.098;9.998;2023-05-10T10:57:27;50.53;;;48.10;;
7485;SDS011;3784;54.098;9.998;2023-05-10T11:02:49;60.67;;;57.73;;
7485;SDS011;3784;54.098;9.998;2023-05-10T11:05:24;86.60;;;82.73;;
7485;SDS011;3784;54.098;9.998;2023-05-10T11:07:52;77.10;;;73.60;;
7485;SDS011;3784;54.098;9.998;2023-05-10T11:10:24;53.87;;;51.27;;
7485;SDS011;3784;54.098;9.998;2023-05-10T11:13:01;48.33;;;46.00;;
7485;SDS011;3784;54.098;9.998;2023-05-10T11:15:32;45.10;;;42.90;;
7485;SDS011;3784;54.098;9.998;2023-05-10T11:18:00;44.30;;;42.27;;
7485;SDS011;3784;54.098;9.998;2023-05-10T11:23:22;34.47;;;32.87;;
7485;SDS011;3784;54.098;9.998;2023-05-10T11:25:49;44.63;;;42.43;;
7485;SDS011;3784;54.098;9.998;2023-05-10T11:28:16;35.27;;;33.27;;
7485;SDS011;3784;54.098;9.998;2023-05-10T11:30:44;38.57;;;36.57;;
7485;SDS011;3784;54.098;9.998;2023-05-10T11:33:14;37.80;;;35.77;;
7485;SDS011;3784;54.098;9.998;2023-05-10T11:35:45;36.27;;;34.43;;
7485;SDS011;3784;54.098;9.998;2023-05-10T11:38:12;34.47;;;32.47;;
7485;SDS011;3784;54.098;9.998;2023-05-10T11:40:40;33.20;;;31.10;;
7485;SDS011;3784;54.098;9.998;2023-05-10T11:43:08;41.07;;;38.97;;
7485;SDS011;3784;54.098;9.998;2023-05-10T11:45:35;42.37;;;40.07;;
7485;SDS011;3784;54.098;9.998;2023-05-10T11:48:02;43.33;;;40.93;;
7485;SDS011;3784;54.098;9.998;2023-05-10T11:50:28;50.03;;;47.40;;
7485;SDS011;3784;54.098;9.998;2023-05-10T11:52:55;51.20;;;48.23;;
7485;SDS011;3784;54.098;9.998;2023-05-10T11:55:22;52.20;;;49.60;;
7485;SDS011;3784;54.098;9.998;2023-05-10T11:57:53;53.97;;;51.27;;
7485;SDS011;3784;54.098;9.998;2023-05-10T12:00:20;68.87;;;65.40;;
7485;SDS011;3784;54.098;9.998;2023-05-10T12:02:47;78.70;;;74.70;;
7485;SDS011;3784;54.098;9.998;2023-05-10T12:05:14;82.23;;;78.37;;
7485;SDS011;3784;54.098;9.998;2023-05-10T12:07:41;89.43;;;85.10;;
7485;SDS011;3784;54.098;9.998;2023-05-10T12:10:09;93.07;;;88.57;;
7485;SDS011;3784;54.098;9.998;2023-05-10T12:12:39;99.60;;;94.90;;
7485;SDS011;3784;54.098;9.998;2023-05-10T12:15:17;96.47;;;91.90;;
7485;SDS011;3784;54.098;9.998;2023-05-10T12:17:49;97.30;;;92.67;;
7485;SDS011;3784;54.098;9.998;2023-05-10T12:20:17;89.10;;;84.77;;
7485;SDS011;3784;54.098;9.998;2023-05-10T12:22:46;87.50;;;83.40;;
7485;SDS011;3784;54.098;9.998;2023-05-10T12:25:13;83.97;;;79.97;;
7485;SDS011;3784;54.098;9.998;2023-05-10T12:27:54;86.47;;;82.13;;
7485;SDS011;3784;54.098;9.998;2023-05-10T12:30:22;85.17;;;81.20;;
7485;SDS011;3784;54.098;9.998;2023-05-10T12:32:49;85.53;;;81.53;;
7485;SDS011;3784;54.098;9.998;2023-05-10T12:35:16;82.93;;;79.00;;
7485;SDS011;3784;54.098;9.998;2023-05-10T12:37:43;81.13;;;77.20;;
7485;SDS011;3784;54.098;9.998;2023-05-10T12:40:10;84.93;;;80.87;;
7485;SDS011;3784;54.098;9.998;2023-05-10T12:42:38;86.03;;;81.87;;
7485;SDS011;3784;54.098;9.998;2023-05-10T12:45:05;78.93;;;75.23;;
7485;SDS011;3784;54.098;9.998;2023-05-10T12:47:33;81.33;;;77.50;;
7485;SDS011;3784;54.098;9.998;2023-05-10T12:50:00;79.97;;;76.17;;
7485;SDS011;3784;54.098;9.998;2023-05-10T12:52:27;82.17;;;78.33;;
7485;SDS011;3784;54.098;9.998;2023-05-10T12:54:54;92.80;;;88.60;;
7485;SDS011;3784;54.098;9.998;2023-05-10T12:57:21;80.90;;;77.17;;
7485;SDS011;3784;54.098;9.998;2023-05-10T12:59:48;72.63;;;68.97;;
7485;SDS011;3784;54.098;9.998;2023-05-10T13:02:14;78.83;;;75.13;;
7485;SDS011;3784;54.098;9.998;2023-05-10T13:04:41;80.87;;;76.93;;
7485;SDS011;3784;54.098;9.998;2023-05-10T13:07:08;80.17;;;76.47;;
7485;SDS011;3784;54.098;9.998;2023-05-10T13:09:35;74.70;;;71.30;;
7485;SDS011;3784;54.098;9.998;2023-05-10T13:12:02;87.53;;;83.47;;
7485;SDS011;3784;54.098;9.998;2023-05-10T13:14:29;71.77;;;68.23;;
7485;SDS011;3784;54.098;9.998;2023-05-10T13:16:56;80.30;;;76.57;;
7485;SDS011;3784;54.098;9.998;2023-05-10T13:19:22;76.10;;;72.53;;
7485;SDS011;3784;54.098;9.998;2023-05-10T13:21:49;80.07;;;76.33;;
7485;SDS011;3784;54.098;9.998;2023-05-10T13:24:15;72.60;;;69.03;;
7485;SDS011;3784;54.098;9.998;2023-05-10T13:26:43;75.60;;;72.10;;
7485;SDS011;3784;54.098;9.998;2023-05-10T13:29:09;73.90;;;70.40;;
7485;SDS011;3784;54.098;9.998;2023-05-10T13:31:36;79.67;;;75.47;;
7485;SDS011;3784;54.098;9.998;2023-05-10T13:34:03;87.57;;;83.43;;
7485;SDS011;3784;54.098;9.998;2023-05-10T13:36:29;83.03;;;79.07;;
7485;SDS011;3784;54.098;9.998;2023-05-10T13:38:56;80.40;;;76.70;;
7485;SDS011;3784;54.098;9.998;2023-05-10T13:41:23;78.47;;;74.57;;
7485;SDS011;3784;54.098;9.998;2023-05-10T13:43:49;83.67;;;79.80;;
7485;SDS011;3784;54.098;9.998;2023-05-10T13:46:16;91.13;;;86.93;;
7485;SDS011;3784;54.098;9.998;2023-05-10T13:48:42;82.30;;;78.57;;
7485;SDS011;3784;54.098;9.998;2023-05-10T13:51:09;84.87;;;80.87;;
7485;SDS011;3784;54.098;9.998;2023-05-10T13:53:35;78.50;;;74.60;;
7485;SDS011;3784;54.098;9.998;2023-05-10T13:56:02;87.47;;;83.43;;
7485;SDS011;3784;54.098;9.998;2023-05-10T13:58:29;84.97;;;81.07;;
7485;SDS011;3784;54.098;9.998;2023-05-10T14:00:55;84.23;;;80.33;;
7485;SDS011;3784;54.098;9.998;2023-05-10T14:03:22;88.57;;;84.57;;
7485;SDS011;3784;54.098;9.998;2023-05-10T14:05:48;87.53;;;83.63;;
7485;SDS011;3784;54.098;9.998;2023-05-10T14:08:15;90.00;;;85.73;;
7485;SDS011;3784;54.098;9.998;2023-05-10T14:10:41;89.53;;;85.43;;
7485;SDS011;3784;54.098;9.998;2023-05-10T14:13:08;92.40;;;88.33;;
7485;SDS011;3784;54.098;9.998;2023-05-10T14:15:34;97.37;;;93.00;;
7485;SDS011;3784;54.098;9.998;2023-05-10T14:18:01;88.37;;;84.33;;
7485;SDS011;3784;54.098;9.998;2023-05-10T14:20:28;91.97;;;87.97;;
7485;SDS011;3784;54.098;9.998;2023-05-10T14:22:55;95.03;;;90.73;;
7485;SDS011;3784;54.098;9.998;2023-05-10T14:25:21;92.73;;;88.67;;
7485;SDS011;3784;54.098;9.998;2023-05-10T14:27:48;95.50;;;91.27;;
7485;SDS011;3784;54.098;9.998;2023-05-10T14:30:14;103.47;;;98.83;;
7485;SDS011;3784;54.098;9.998;2023-05-10T14:32:41;98.40;;;94.20;;
7485;SDS011;3784;54.098;9.998;2023-05-10T14:35:07;95.10;;;90.93;;
7485;SDS011;3784;54.098;9.998;2023-05-10T14:37:38;94.93;;;90.70;;
7485;SDS011;3784;54.098;9.998;2023-05-10T14:40:06;102.10;;;97.50;;
7485;SDS011;3784;54.098;9.998;2023-05-10T14:42:33;95.70;;;91.30;;
7485;SDS011;3784;54.098;9.998;2023-05-10T14:44:59;95.17;;;90.87;;
7485;SDS011;3784;54.098;9.998;2023-05-10T14:47:26;87.93;;;83.93;;
7485;SDS011;3784;54.098;9.998;2023-05-10T14:49:53;99.60;;;95.23;;
7485;SDS011;3784;54.098;9.998;2023-05-10T14:52:19;94.67;;;90.27;;
7485;SDS011;3784;54.098;9.998;2023-05-10T14:54:46;97.83;;;93.43;;
7485;SDS011;3784;54.098;9.998;2023-05-10T14:57:12;96.80;;;92.47;;
7485;SDS011;3784;54.098;9.998;2023-05-10T14:59:39;101.83;;;97.47;;
7485;SDS011;3784;54.098;9.998;2023-05-10T15:02:06;91.50;;;87.47;;
7485;SDS011;3784;54.098;9.998;2023-05-10T15:04:35;86.87;;;83.13;;
7485;SDS011;3784;54.098;9.998;2023-05-10T15:07:02;91.93;;;87.93;;
7485;SDS011;3784;54.098;9.998;2023-05-10T15:09:29;95.27;;;91.17;;
7485;SDS011;3784;54.098;9.998;2023-05-10T15:11:56;82.17;;;78.50;;
7485;SDS011;3784;54.098;9.998;2023-05-10T15:14:22;91.73;;;87.63;;
7485;SDS011;3784;54.098;9.998;2023-05-10T15:16:49;77.13;;;73.73;;
7485;SDS011;3784;54.098;9.998;2023-05-10T15:19:16;94.27;;;90.20;;
7485;SDS011;3784;54.098;9.998;2023-05-10T15:21:42;88.37;;;84.37;;